createdAt,value
2018-10-12T00:00:17.280Z,44.7
2018-10-12T00:05:15.801Z,44.7
2018-10-12T00:10:14.135Z,44.6
2018-10-12T00:15:12.343Z,44.5
2018-10-12T00:20:10.680Z,44.5
2018-10-12T00:25:08.219Z,44.5
2018-10-12T00:30:06.369Z,44.6
2018-10-12T00:35:04.566Z,44.6
2018-10-12T00:40:02.940Z,44.7
2018-10-12T00:45:01.362Z,44.7
2018-10-12T00:49:59.649Z,44.7
2018-10-12T00:54:57.827Z,44.7
2018-10-12T00:59:56.029Z,44.7
2018-10-12T01:04:54.397Z,44.7
2018-10-12T01:09:52.645Z,44.7
2018-10-12T01:14:50.902Z,44.7
2018-10-12T01:19:49.141Z,44.7
2018-10-12T01:24:47.643Z,44.7
2018-10-12T01:29:45.774Z,44.7
2018-10-12T01:34:44.043Z,44.6
2018-10-12T01:39:42.245Z,44.5
2018-10-12T01:44:40.472Z,44.6
2018-10-12T01:49:38.895Z,44.6
2018-10-12T01:54:37.188Z,44.6
2018-10-12T01:59:35.516Z,44.6
2018-10-12T02:04:33.687Z,44.7
2018-10-12T02:09:31.928Z,44.7
2018-10-12T02:14:30.176Z,44.7
2018-10-12T02:19:28.472Z,44.7
2018-10-12T02:24:26.687Z,44.7
2018-10-12T02:29:25.118Z,44.7
2018-10-12T02:34:23.417Z,44.7
2018-10-12T02:39:21.738Z,44.7
2018-10-12T02:44:20.138Z,44.7
2018-10-12T02:49:18.561Z,44.7
2018-10-12T02:54:16.948Z,44.7
2018-10-12T02:59:15.262Z,44.7
2018-10-12T03:04:13.420Z,44.6
2018-10-12T03:09:11.778Z,44.6
2018-10-12T03:14:09.933Z,44.6
2018-10-12T03:19:08.367Z,44.6
2018-10-12T03:24:06.784Z,44.6
2018-10-12T03:29:05.030Z,44.6
2018-10-12T03:34:03.641Z,44.6
2018-10-12T03:39:01.750Z,44.6
2018-10-12T03:43:59.929Z,44.7
2018-10-12T03:48:58.454Z,44.7
2018-10-12T03:53:56.799Z,44.7
2018-10-12T03:58:55.279Z,44.7
2018-10-12T04:03:53.668Z,44.7
2018-10-12T04:08:52.120Z,44.7
2018-10-12T04:13:50.053Z,44.8
2018-10-12T04:18:48.376Z,44.7
2018-10-12T04:23:46.740Z,44.7
2018-10-12T04:28:44.972Z,44.7
2018-10-12T04:33:43.503Z,44.7
2018-10-12T04:38:41.716Z,44.7
2018-10-12T04:43:39.972Z,44.7
2018-10-12T04:48:38.378Z,44.7
2018-10-12T04:53:36.572Z,44.7
2018-10-12T04:58:34.926Z,44.7
2018-10-12T05:03:33.203Z,44.7
2018-10-12T05:08:31.515Z,44.8
2018-10-12T05:13:29.797Z,44.8
2018-10-12T05:18:28.273Z,44.7
2018-10-12T05:23:26.850Z,44.7
2018-10-12T05:28:25.119Z,44.8
2018-10-12T05:33:23.623Z,44.7
2018-10-12T05:38:22.143Z,44.7
2018-10-12T05:43:20.640Z,44.8
2018-10-12T05:48:18.927Z,44.7
2018-10-12T05:53:17.431Z,44.7
2018-10-12T05:58:15.545Z,44.8
2018-10-12T06:03:13.994Z,44.7
2018-10-12T06:08:12.923Z,44.7
2018-10-12T06:13:11.094Z,44.7
2018-10-12T06:18:09.279Z,44.7
2018-10-12T06:23:07.422Z,44.7
2018-10-12T06:28:05.763Z,44.7
2018-10-12T06:33:04.494Z,44.7
2018-10-12T06:38:02.848Z,44.7
2018-10-12T06:43:01.219Z,44.7
2018-10-12T06:47:59.306Z,44.7
2018-10-12T06:52:57.572Z,44.7
2018-10-12T06:57:55.968Z,44.8
2018-10-12T07:02:54.421Z,44.8
2018-10-12T07:07:52.800Z,44.8
2018-10-12T07:12:51.521Z,44.8
2018-10-12T07:17:49.343Z,44.8
2018-10-12T07:22:48.085Z,44.8
2018-10-12T07:27:46.204Z,44.8
2018-10-12T07:32:45.114Z,44.8
2018-10-12T07:37:43.701Z,44.8
2018-10-12T07:42:42.330Z,44.8
2018-10-12T07:47:40.263Z,44.8
2018-10-12T07:52:39.008Z,44.8
2018-10-12T07:57:38.136Z,44.8
2018-10-12T08:02:36.624Z,44.8
2018-10-12T08:07:34.671Z,44.9
2018-10-12T08:12:33.432Z,44.9
2018-10-12T08:17:31.733Z,44.9
2018-10-12T08:22:30.160Z,44.9
2018-10-12T08:27:28.561Z,44.9
2018-10-12T08:32:26.626Z,45
2018-10-12T08:37:25.019Z,45
2018-10-12T08:42:23.274Z,45
2018-10-12T08:47:21.525Z,45
2018-10-12T08:52:19.793Z,45
2018-10-12T08:57:18.202Z,45.1
2018-10-12T09:02:16.534Z,45.2
2018-10-12T09:07:14.943Z,45.2
2018-10-12T09:12:13.345Z,45.2
2018-10-12T09:17:11.602Z,45.2
2018-10-12T09:22:10.279Z,45.2
2018-10-12T09:27:08.917Z,45.3
2018-10-12T09:32:07.197Z,45.3
2018-10-12T09:37:05.439Z,45.3
2018-10-12T09:42:03.687Z,45.3
2018-10-12T09:47:01.992Z,45.4
2018-10-12T09:52:00.367Z,45.4
2018-10-12T09:56:58.696Z,45.4
2018-10-12T10:01:57.339Z,45.4
2018-10-12T10:06:55.733Z,45.4
2018-10-12T10:11:54.157Z,45.5
2018-10-12T10:16:52.595Z,45.5
2018-10-12T10:21:51.016Z,45.5
2018-10-12T10:26:49.479Z,45.5
2018-10-12T10:31:47.955Z,45.6
2018-10-12T10:36:46.164Z,45.6
2018-10-12T10:41:44.868Z,45.6
2018-10-12T10:46:43.106Z,45.6
2018-10-12T10:51:42.000Z,45.6
2018-10-12T10:56:40.319Z,45.6
2018-10-12T11:01:38.704Z,45.6
2018-10-12T11:06:37.168Z,45.6
2018-10-12T11:11:35.993Z,45.7
2018-10-12T11:16:34.157Z,45.7
2018-10-12T11:21:33.022Z,45.7
2018-10-12T11:26:31.878Z,45.7
2018-10-12T11:31:30.657Z,45.7
2018-10-12T11:36:28.704Z,45.7
2018-10-12T11:41:27.030Z,45.7
2018-10-12T11:46:25.453Z,45.7
2018-10-12T11:51:23.897Z,45.7
2018-10-12T11:56:22.275Z,45.7
2018-10-12T12:01:21.133Z,45.7
2018-10-12T12:06:19.474Z,45.7
2018-10-12T12:11:18.458Z,45.6
2018-10-12T12:16:16.907Z,45.7
2018-10-12T12:21:16.087Z,45.7
2018-10-12T12:26:14.273Z,45.6
2018-10-12T12:31:12.907Z,45.6
2018-10-12T12:36:10.954Z,45.6
2018-10-12T12:41:10.100Z,45.5
2018-10-12T12:46:08.478Z,45.5
2018-10-12T12:51:07.466Z,45.5
2018-10-12T12:56:05.763Z,45.4
2018-10-12T13:01:04.195Z,45.4
2018-10-12T13:06:02.648Z,45.4
2018-10-12T13:11:01.009Z,45.4
2018-10-12T13:15:59.605Z,45.4
2018-10-12T13:20:57.980Z,45.4
2018-10-12T13:25:56.920Z,45.4
2018-10-12T13:30:55.356Z,45.3
2018-10-12T13:35:53.677Z,45.3
2018-10-12T13:40:52.143Z,45.3
2018-10-12T13:45:50.583Z,45.2
2018-10-12T13:50:48.805Z,45.2
2018-10-12T13:55:47.335Z,45.2
2018-10-12T14:00:46.228Z,45.2
2018-10-12T14:05:44.425Z,45.1
2018-10-12T14:10:42.773Z,45.1
2018-10-12T14:15:41.116Z,45.1
2018-10-12T14:20:39.563Z,45.1
2018-10-12T14:25:38.011Z,45.1
2018-10-12T14:30:36.093Z,45.1
2018-10-12T14:35:34.522Z,45.1
2018-10-12T14:40:32.675Z,45.1
2018-10-12T14:45:30.996Z,45.1
2018-10-12T14:50:29.881Z,45.1
2018-10-12T14:55:28.312Z,45
2018-10-12T15:00:26.738Z,45
2018-10-12T15:05:25.265Z,44.9
2018-10-12T15:10:23.860Z,44.8
2018-10-12T15:15:22.293Z,44.8
2018-10-12T15:20:21.077Z,44.7
2018-10-12T15:25:19.360Z,44.7
2018-10-12T15:30:18.084Z,44.6
2018-10-12T15:35:16.229Z,44.5
2018-10-12T15:40:15.041Z,44.5
2018-10-12T15:45:13.506Z,44.5
2018-10-12T15:50:11.921Z,44.5
2018-10-12T15:55:10.483Z,44.5
2018-10-12T16:00:08.733Z,44.5
2018-10-12T16:05:07.078Z,44.5
2018-10-12T16:10:05.401Z,44.5
2018-10-12T16:15:03.932Z,44.5
2018-10-12T16:20:02.483Z,44.5
2018-10-12T16:25:00.739Z,44.5
2018-10-12T16:29:59.306Z,44.4
2018-10-12T16:34:57.732Z,44.4
2018-10-12T16:39:56.071Z,44.4
2018-10-12T16:44:54.222Z,44.4
2018-10-12T16:49:52.938Z,44.4
2018-10-12T16:54:51.035Z,44.4
2018-10-12T16:59:49.481Z,44.5
2018-10-12T17:04:48.025Z,44.4
2018-10-12T17:09:46.382Z,44.4
2018-10-12T17:14:44.734Z,44.4
2018-10-12T17:19:43.223Z,44.4
2018-10-12T17:24:41.736Z,44.4
2018-10-12T17:29:39.974Z,44.4
2018-10-12T17:34:38.383Z,44.4
2018-10-12T17:39:36.959Z,44.4
2018-10-12T17:44:35.409Z,44.4
2018-10-12T17:49:33.918Z,44.4
2018-10-12T17:54:32.336Z,44.4
2018-10-12T17:59:30.406Z,44.5
2018-10-12T18:04:28.651Z,44.6
2018-10-12T18:09:27.031Z,44.6
2018-10-12T18:14:25.453Z,44.6
2018-10-12T18:19:23.790Z,44.6
2018-10-12T18:24:22.186Z,44.5
2018-10-12T18:29:20.533Z,44.5
2018-10-12T18:34:18.804Z,44.5
2018-10-12T18:39:17.203Z,44.5
2018-10-12T18:44:15.157Z,44.5
2018-10-12T18:49:13.592Z,44.5
2018-10-12T18:54:12.297Z,44.6
2018-10-12T18:59:10.721Z,44.6
2018-10-12T19:04:09.347Z,44.6
2018-10-12T19:09:07.919Z,44.5
2018-10-12T19:14:06.301Z,44.6
2018-10-12T19:19:04.588Z,44.6
2018-10-12T19:24:02.667Z,44.6
2018-10-12T19:29:01.157Z,44.6
2018-10-12T19:33:59.632Z,44.6
2018-10-12T19:38:57.967Z,44.6
2018-10-12T19:43:56.422Z,44.6
2018-10-12T19:48:54.927Z,44.6
2018-10-12T19:53:53.138Z,44.6
2018-10-12T19:58:51.618Z,44.6
2018-10-12T20:03:49.812Z,44.6
2018-10-12T20:08:48.225Z,44.6
2018-10-12T20:13:46.685Z,44.6
2018-10-12T20:18:44.976Z,44.6
2018-10-12T20:23:43.411Z,44.6
2018-10-12T20:28:41.707Z,44.5
2018-10-12T20:33:40.059Z,44.6
2018-10-12T20:38:38.078Z,44.6
2018-10-12T20:43:36.545Z,44.6
2018-10-12T20:48:34.816Z,44.6
2018-10-12T20:53:33.118Z,44.6
2018-10-12T20:58:31.464Z,44.7
2018-10-12T21:03:29.636Z,44.6
2018-10-12T21:08:28.175Z,44.6
2018-10-12T21:13:26.627Z,44.6
2018-10-12T21:18:24.892Z,44.6
2018-10-12T21:23:23.212Z,44.6
2018-10-12T21:28:21.917Z,44.6
2018-10-12T21:33:20.180Z,44.5
2018-10-12T21:38:18.365Z,44.5
2018-10-12T21:43:16.943Z,44.5
2018-10-12T21:48:15.231Z,44.6
2018-10-12T21:53:13.563Z,44.6
2018-10-12T21:58:11.945Z,44.6
2018-10-12T22:03:10.451Z,44.6
2018-10-12T22:08:08.869Z,44.6
2018-10-12T22:13:07.256Z,44.6
2018-10-12T22:18:05.682Z,44.7
2018-10-12T22:23:03.983Z,44.6
2018-10-12T22:28:02.274Z,44.6
2018-10-12T22:33:00.431Z,44.6
2018-10-12T22:37:58.878Z,44.6
2018-10-12T22:42:57.475Z,44.6
2018-10-12T22:47:55.932Z,44.6
2018-10-12T22:52:54.400Z,44.5
2018-10-12T22:57:52.904Z,44.5
2018-10-12T23:02:50.887Z,44.5
2018-10-12T23:07:49.248Z,44.5
2018-10-12T23:12:47.668Z,44.6
2018-10-12T23:17:45.539Z,44.6
2018-10-12T23:22:43.757Z,44.6
2018-10-12T23:27:42.264Z,44.7
2018-10-12T23:32:40.392Z,44.7
2018-10-12T23:37:38.801Z,44.7
2018-10-12T23:42:36.872Z,44.7
2018-10-12T23:47:35.152Z,44.7
2018-10-12T23:52:33.324Z,44.7
2018-10-12T23:57:31.602Z,44.7
